Terminal Aerodrome Forecast
Issued by NWS Charleston, WV

Current Version | Previous Version | Text Only | Print | Product List | Glossary On
Versions: 1 2 3 4 5 6 7 8 9 10 11 12 13 14 15 16 17 18 19 20 21
549
FTUS41 KRLX 260539
TAFCRW
TAF
KCRW 260539Z 2606/2706 00000KT P6SM FEW250
     FM260800 00000KT 3SM BR SCT001
     FM261300 VRB03KT P6SM FEW025
     FM261700 29004KT P6SM SCT040=

USA.gov is the U.S. government's official web portal to all federal, state and local government web resources and services.